Defreestville, New York
Current Conditions -  °F | °C
As of 9:51 AM on Saturday 01 Nov 2014 (Local Time) from KALB Reporting Station
Broken Clouds Broken Clouds  
Wind Chill: 37°   Ceiling: 20000
Heat Index: 43°   Visibility: 10mi
Dew Point: 31°   Wind: 12mph
Humidity: 62%   Direction: 10°N
Pressure: 29.97"   Gusts: NA
Location:  42.6273°N, 73.7089°W
Report Text: KALB 011351Z 01010KT 10SM FEW065 SCT150 BKN200 BKN250 06/M01 A2997 RMK AO2 SLP151 T00611006
Loading
Personal Weather Stations






























Interactive Weather Map
Tropical Storm Tracking
New forecast layout! Learn more

10-Day Weather Forecast

Advertisements
Track Severe Weather on mobile